Data for 03/09/2010

Time Sea-Level Adjusted Pressure Absolute Pressure Temperature Relative Humidity Dew Point   
(mb) (inHg) (mb) (inHg) (C) (F) (%) (C) (F)
00:05 1010 29.83 839 24.78 1.9 35.4 56 -5.8 21.5
00:10 1010 29.83 839 24.78 1.9 35.5 52 -6.8 19.7
00:15 1010 29.83 839 24.78 1.9 35.4 57 -5.7 21.8
00:20 1010 29.83 839 24.78 1.1 33.9 59 -6.1 21
00:25 1010 29.83 839 24.78 1.3 34.3 56 -6.6 20.1
00:30 1010 29.83 839 24.78 1.8 35.3 54 -6.5 20.3
00:35 1010 29.83 839 24.78 1.5 34.6 56 -6.3 20.6
00:40 1010 29.83 839 24.78 0.7 33.3 60 -6.3 20.7
00:45 1010 29.83 839 24.78 0.2 32.4 60 -6.6 20.2
00:50 1010 29.83 839 24.78 0.2 32.4 59 -6.8 19.8
00:55 1010 29.83 839 24.78 0.8 33.4 54 -7.6 18.3
01:00 1010 29.83 839 24.78 1.6 34.9 52 -7.1 19.2
01:05 1010 29.83 839 24.78 1.6 34.9 52 -7.2 19
01:10 1010 29.83 839 24.78 1.7 35.1 52 -7 19.3
01:15 1010 29.83 839 24.78 1.7 35 53 -7 19.3
01:20 1010 29.83 839 24.78 1.3 34.3 56 -6.6 20.2
01:25 1010 29.83 839 24.78 0.7 33.3 57 -6.8 19.7
01:30 1010 29.83 839 24.78 0.7 33.2 57 -6.8 19.7
01:35 1010 29.83 839 24.78 0.3 32.6 57 -7.2 19.1
01:40 1010 29.83 839 24.78 0.4 32.7 58 -6.9 19.6
01:45 1010 29.83 839 24.78 0.5 32.9 56 -7.2 19
01:50 1010 29.83 839 24.78 0.2 32.3 59 -6.9 19.5
01:55 1010 29.83 839 24.78 0.3 32.5 59 -6.8 19.8
02:00 1010 29.83 839 24.78 -0.2 31.6 61 -6.8 19.8
02:05 1010 29.83 839 24.78 -0.4 31.3 61 -7 19.4
02:10 1010 29.83 839 24.78 -0.2 31.7 59 -7.2 19
02:15 1010 29.83 839 24.78 0.1 32.2 59 -7 19.4
02:20 1010 29.83 839 24.78 0.1 32.2 58 -7.2 19.1
02:25 1010 29.83 839 24.78 0.1 32.2 60 -6.8 19.8
02:30 1010 29.83 839 24.78 -0.2 31.7 60 -7 19.5
02:35 1010 29.83 839 24.78 -0.1 31.8 60 -7 19.3
02:40 1010 29.83 839 24.78 -0.3 31.5 61 -7 19.5
02:45 1010 29.83 839 24.78 -0.6 30.8 62 -7.1 19.3
02:50 1010 29.83 839 24.78 -1 30.2 63 -7.1 19.2
02:55 1010 29.83 839 24.78 -1.1 30 64 -7.1 19.2
03:00 1010 29.83 839 24.78 -1.2 29.8 65 -7.1 19.3
03:05 1010 29.83 839 24.78 -1.3 29.6 65 -7.1 19.3
03:10 1010 29.83 839 24.78 -1.4 29.5 65 -7.2 19
03:15 1010 29.83 839 24.78 -1.5 29.3 66 -7.1 19.1
03:20 1010 29.83 839 24.78 -1.7 29 66 -7.1 19.2
03:25 1010 29.83 839 24.78 -1.7 29 65 -7.4 18.7
03:30 1010 29.83 839 24.78 -1.5 29.4 63 -7.6 18.4
03:35 1010 29.83 839 24.78 -1.1 29.9 62 -7.5 18.4
03:40 1010 29.83 839 24.78 -1 30.1 61 -7.6 18.3
03:45 1010 29.83 839 24.78 -0.8 30.6 61 -7.5 18.6
03:50 1010 29.83 839 24.78 -1.1 30.1 63 -7.3 18.8
03:55 1010 29.83 839 24.78 -1.2 29.9 61 -7.7 18.2
04:00 1010 29.83 839 24.78 -0.9 30.3 62 -7.3 18.8
04:05 1010 29.83 839 24.78 -1.3 29.7 62 -7.6 18.3
04:10 1010 29.83 839 24.78 -1.3 29.8 63 -7.3 18.8
04:15 1010 29.83 839 24.78 -1 30.2 61 -7.5 18.5
04:20 1010 29.83 839 24.78 -0.9 30.5 61 -7.4 18.6
04:25 1010 29.83 839 24.78 -0.5 31 60 -7.4 18.7
04:30 1010 29.83 839 24.78 -0.6 30.9 62 -7.1 19.3
04:35 1010 29.83 839 24.78 -0.8 30.5 60 -7.5 18.5
04:40 1010 29.83 839 24.78 -0.6 31 61 -7.2 19
04:45 1010 29.83 839 24.78 -0.8 30.5 61 -7.4 18.7
04:50 1010 29.83 839 24.78 -1.2 29.8 64 -7.1 19.2
04:55 1010 29.83 839 24.78 -1.3 29.7 62 -7.6 18.3
05:00 1010 29.83 839 24.78 -1.1 30 63 -7.4 18.7
05:05 1010 29.83 839 24.78 -1 30.2 62 -7.3 18.9
05:10 1010 29.83 839 24.78 -1.2 29.8 63 -7.4 18.7
05:15 1010 29.83 839 24.78 -1.4 29.6 64 -7.3 18.8
05:20 1010 29.83 839 24.78 -1.6 29.1 66 -7.2 19
05:25 1010 29.83 839 24.78 -1.6 29 63 -7.8 18
05:30 1010 29.83 839 24.78 -0.9 30.3 62 -7.3 18.9
05:35 1010 29.83 839 24.78 -1.4 29.4 65 -7.1 19.2
05:40 1010 29.83 839 24.78 -1.8 28.7 65 -7.5 18.4
05:45 1010 29.83 839 24.78 -1.7 28.9 65 -7.5 18.5
05:50 1010 29.83 839 24.78 -1.8 28.7 65 -7.5 18.6
05:55 1010 29.83 839 24.78 -2.1 28.3 67 -7.4 18.8
06:00 1010 29.83 839 24.78 -1.9 28.5 66 -7.5 18.5
06:05 1010 29.83 840 24.81 -1.8 28.8 65 -7.4 18.6
06:10 1010 29.83 840 24.81 -1.8 28.7 65 -7.5 18.5
06:15 1010 29.83 840 24.81 -1.8 28.8 65 -7.5 18.5
06:20 1010 29.83 840 24.81 -1.7 28.9 64 -7.6 18.3
06:25 1010 29.83 840 24.81 -1.7 28.9 66 -7.2 19.1
06:30 1011 29.85 840 24.81 -1.8 28.8 65 -7.5 18.6
06:35 1010 29.83 840 24.81 -2 28.4 66 -7.6 18.3
06:40 1010 29.83 840 24.81 -2.1 28.3 66 -7.6 18.3
06:45 1011 29.85 840 24.81 -2.1 28.3 67 -7.5 18.5
06:50 1011 29.85 840 24.81 -2.1 28.3 66 -7.5 18.4
06:55 1011 29.85 840 24.81 -2.1 28.2 67 -7.5 18.5
07:00 1011 29.85 840 24.81 -2 28.4 66 -7.4 18.6
07:05 1011 29.85 840 24.81 -1.9 28.6 66 -7.4 18.7
07:10 1011 29.85 840 24.81 -1.9 28.5 66 -7.4 18.6
07:15 1011 29.85 840 24.81 -2 28.5 67 -7.4 18.7
07:20 1011 29.85 840 24.81 -2.3 27.9 68 -7.5 18.6
07:25 1011 29.85 840 24.81 -2.3 27.9 67 -7.6 18.3
07:30 1011 29.85 840 24.81 -2.2 28.1 67 -7.6 18.4
07:35 1011 29.85 840 24.81 -2.1 28.2 67 -7.5 18.5
07:40 1011 29.85 840 24.81 -1.9 28.6 66 -7.5 18.5
07:45 1011 29.85 840 24.81 -1.6 29 65 -7.4 18.7
07:50 1011 29.85 840 24.81 -1.3 29.7 65 -7 19.4
07:55 1011 29.85 840 24.81 -1.1 30.1 63 -7.2 19.1
08:00 1011 29.85 840 24.81 -1 30.3 63 -7.1 19.2
08:05 1011 29.85 840 24.81 -0.8 30.6 64 -6.8 19.8
08:10 1011 29.85 840 24.81 -0.7 30.7 64 -6.8 19.8
08:15 1011 29.85 840 24.81 -0.6 30.8 64 -6.6 20.2
08:20 1011 29.85 840 24.81 -0.3 31.4 63 -6.6 20.1
08:25 1011 29.85 840 24.81 -0 32 62 -6.4 20.6
08:30 1011 29.85 840 24.81 0.2 32.4 60 -6.7 20
08:35 1011 29.85 840 24.81 0.3 32.6 60 -6.4 20.4
08:40 1011 29.85 840 24.81 0.5 32.8 60 -6.4 20.4
08:45 1011 29.85 840 24.81 0.9 33.6 55 -7 19.3
08:50 1011 29.85 840 24.81 1.5 34.7 54 -6.8 19.8
08:55 1011 29.85 840 24.81 1.7 35 55 -6.4 20.5
09:00 1011 29.85 840 24.81 2.1 35.9 52 -6.8 19.8
09:05 1011 29.85 840 24.81 2.3 36.1 52 -6.6 20.2
09:10 1011 29.85 840 24.81 2.8 37.1 52 -6.1 21.1
09:15 1010 29.83 840 24.81 3.1 37.7 51 -6.1 21
09:20 1010 29.83 840 24.81 3.4 38.2 50 -6.1 21.1
09:25 1010 29.83 840 24.81 3.3 37.9 51 -5.9 21.4
09:30 1011 29.85 840 24.81 3.5 38.3 50 -5.8 21.5
09:35 1010 29.83 840 24.81 3.4 38.2 51 -5.7 21.7
09:40 1010 29.83 840 24.81 3.1 37.5 53 -5.6 21.9
09:45 1010 29.83 840 24.81 3.4 38 52 -5.6 22
09:50 1010 29.83 840 24.81 3.4 38.1 51 -5.9 21.4
09:55 1010 29.83 840 24.81 3.2 37.8 54 -5.3 22.5
10:00 1010 29.83 840 24.81 3.4 38.2 52 -5.4 22.3
10:05 1010 29.83 840 24.81 3.4 38.2 51 -5.6 21.8
10:10 1010 29.83 840 24.81 4 39.1 50 -5.6 21.9
10:15 1010 29.83 840 24.81 3.6 38.5 52 -5.3 22.5
10:20 1010 29.83 840 24.81 3.3 37.9 55 -5 23
10:25 1010 29.83 840 24.81 3.5 38.2 57 -4.4 24.2
10:30 1010 29.83 840 24.81 3.8 38.9 55 -4.4 24.1
10:35 1010 29.83 840 24.81 3.9 39.1 58 -3.6 25.6
10:40 1010 29.83 840 24.81 4.1 39.3 59 -3.2 26.2
10:45 1010 29.83 839 24.78 4.3 39.8 58 -3.2 26.3
10:50 1010 29.83 839 24.78 3.8 38.8 61 -2.9 26.7
10:55 1010 29.83 839 24.78 3.7 38.7 61 -3.1 26.4
11:00 1010 29.83 839 24.78 4.1 39.4 62 -2.6 27.4
11:05 1010 29.83 839 24.78 4 39.2 63 -2.4 27.6
11:10 1010 29.83 839 24.78 3.6 38.4 64 -2.6 27.4
11:15 1010 29.83 839 24.78 3.4 38.2 66 -2.3 27.9
11:20 1010 29.83 839 24.78 3.6 38.6 64 -2.4 27.6
11:25 1010 29.83 839 24.78 3.9 39.1 63 -2.6 27.4
11:30 1010 29.83 839 24.78 4.5 40.2 61 -2.3 27.9
11:35 1010 29.83 839 24.78 4.6 40.2 62 -2 28.4
11:40 1010 29.83 839 24.78 4.1 39.4 63 -2.3 27.8
11:45 1010 29.83 839 24.78 4 39.2 61 -2.7 27.1
11:50 1010 29.83 839 24.78 4.7 40.5 59 -2.6 27.4
11:55 1010 29.83 839 24.78 4.7 40.5 61 -2.3 27.9
12:00 1010 29.83 839 24.78 4.4 39.9 60 -2.7 27.1
12:05 1010 29.83 839 24.78 4.4 39.9 60 -2.7 27.1
12:10 1010 29.83 839 24.78 4.6 40.3 58 -2.9 26.8
12:15 1010 29.83 839 24.78 4.8 40.6 56 -3.2 26.3
12:20 1010 29.83 839 24.78 4.9 40.8 58 -2.8 27
12:25 1010 29.83 839 24.78 4.6 40.3 57 -3.1 26.3
12:30 1010 29.83 839 24.78 4.6 40.3 58 -3 26.6
12:35 1010 29.83 839 24.78 4.7 40.5 57 -3.2 26.3
12:40 1009 29.8 839 24.78 4.5 40.2 57 -3.4 26
12:45 1009 29.8 839 24.78 5.3 41.5 55 -3.1 26.4
12:50 1009 29.8 839 24.78 5.7 42.3 53 -3.1 26.5
12:55 1009 29.8 838 24.75 5.6 42.1 53 -3.1 26.4
13:00 1009 29.8 838 24.75 5.4 41.8 54 -3 26.6
13:05 1009 29.8 838 24.75 5.9 42.6 54 -2.8 27
13:10 1009 29.8 838 24.75 5.9 42.7 52 -3.2 26.3
13:15 1009 29.8 838 24.75 5.8 42.5 54 -2.8 26.9
13:20 1009 29.8 838 24.75 5.5 41.9 56 -2.6 27.3
13:25 1009 29.8 838 24.75 5.6 42 53 -3.1 26.4
13:30 1009 29.8 838 24.75 4.8 40.6 57 -3 26.6
13:35 1009 29.8 838 24.75 4.6 40.3 59 -2.7 27.1
13:40 1009 29.8 838 24.75 4.5 40 57 -3.3 26
13:45 1008 29.77 838 24.75 5.6 42.2 51 -3.7 25.3
13:50 1008 29.77 838 24.75 5 41.1 53 -3.7 25.3
13:55 1008 29.77 838 24.75 5.3 41.5 53 -3.4 25.8
14:00 1008 29.77 838 24.75 4.9 40.8 54 -3.6 25.6
14:05 1008 29.77 837 24.72 5.1 41.2 54 -3.4 25.9
14:10 1008 29.77 837 24.72 6.2 43.1 51 -3.2 26.2
14:15 1008 29.77 837 24.72 6.9 44.3 48 -3.3 26.1
14:20 1008 29.77 837 24.72 6.6 43.9 51 -2.7 27.1
14:25 1008 29.77 837 24.72 6.1 42.9 52 -3 26.6
14:30 1008 29.77 837 24.72 4.8 40.6 57 -3 26.6
14:35 1008 29.77 837 24.72 5.4 41.7 52 -3.8 25.2
14:40 1008 29.77 837 24.72 5.6 42.2 52 -3.4 25.9
14:45 1008 29.77 837 24.72 5.8 42.4 53 -3 26.6
14:50 1008 29.77 837 24.72 5.6 42.1 53 -3.1 26.4
14:55 1008 29.77 837 24.72 5 41 55 -3.3 26.1
15:00 1008 29.77 837 24.72 5 41 55 -3.2 26.2
15:05 1008 29.77 837 24.72 5.2 41.3 53 -3.5 25.7
15:10 1008 29.77 837 24.72 5.5 41.9 54 -3.1 26.4
15:15 1008 29.77 837 24.72 4.5 40.2 57 -3.3 26
15:20 1008 29.77 837 24.72 4.8 40.6 55 -3.4 25.9
15:25 1008 29.77 837 24.72 5.1 41.2 56 -3 26.7
15:30 1008 29.77 837 24.72 4.4 39.9 56 -3.5 25.6
15:35 1008 29.77 837 24.72 4.5 40.1 57 -3.4 25.9
15:40 1008 29.77 837 24.72 4 39.2 57 -3.8 25.1
15:45 1008 29.77 837 24.72 4.9 40.8 53 -3.8 25.2
15:50 1008 29.77 837 24.72 5.3 41.6 55 -3 26.6
15:55 1008 29.77 837 24.72 4.1 39.5 58 -3.4 25.9
16:00 1007 29.74 837 24.72 4.1 39.4 54 -4.3 24.2
16:05 1007 29.74 837 24.72 4.2 39.6 57 -3.6 25.6
16:10 1007 29.74 837 24.72 4.6 40.3 54 -3.8 25.1
16:15 1007 29.74 837 24.72 4.8 40.7 56 -3.2 26.3
16:20 1007 29.74 837 24.72 4.1 39.3 58 -3.4 25.9
16:25 1007 29.74 837 24.72 4.6 40.3 55 -3.7 25.3
16:30 1007 29.74 836 24.69 4.3 39.7 58 -3.2 26.2
16:35 1007 29.74 836 24.69 4 39.2 57 -3.7 25.3
16:40 1007 29.74 836 24.69 4.1 39.4 56 -3.8 25.1
16:45 1007 29.74 836 24.69 4.3 39.8 57 -3.5 25.7
16:50 1007 29.74 836 24.69 4.5 40.1 56 -3.5 25.7
16:55 1007 29.74 836 24.69 4.3 39.7 57 -3.6 25.5
17:00 1007 29.74 836 24.69 4.6 40.2 54 -3.8 25.1
17:05 1007 29.74 836 24.69 5 40.9 54 -3.6 25.5
17:10 1007 29.74 836 24.69 5.2 41.4 53 -3.7 25.4
17:15 1007 29.74 836 24.69 5.6 42 53 -3.4 26
17:20 1007 29.74 836 24.69 5.3 41.5 54 -3.4 25.9
17:25 1007 29.74 836 24.69 4.8 40.6 54 -3.6 25.5
17:30 1007 29.74 836 24.69 5.1 41.2 54 -3.4 26
17:35 1007 29.74 836 24.69 4.7 40.5 57 -3 26.5
17:40 1007 29.74 836 24.69 4.4 39.9 58 -3.1 26.5
17:45 1007 29.74 836 24.69 4.2 39.5 60 -2.9 26.7
17:50 1007 29.74 836 24.69 4 39.2 61 -2.8 26.9
17:55 1007 29.74 836 24.69 3.8 38.9 62 -2.8 27
18:00 1007 29.74 836 24.69 3.7 38.6 63 -2.8 27
18:05 1007 29.74 836 24.69 3.5 38.4 63 -2.8 27
18:10 1007 29.74 836 24.69 3.4 38.1 64 -2.9 26.8
18:15 1007 29.74 836 24.69 3.3 37.9 64 -2.9 26.7
18:20 1007 29.74 836 24.69 3.2 37.7 64 -3 26.7
18:25 1007 29.74 836 24.69 3.1 37.5 65 -3 26.7
18:30 1007 29.74 836 24.69 3 37.5 64 -3.1 26.5
18:35 1007 29.74 836 24.69 3 37.4 64 -3.1 26.5
18:40 1007 29.74 836 24.69 2.9 37.3 65 -3 26.5
18:45 1007 29.74 836 24.69 2.8 37.1 66 -2.9 26.7
18:50 1007 29.74 836 24.69 2.8 37 66 -2.9 26.8
18:55 1007 29.74 836 24.69 2.6 36.7 67 -2.9 26.7
19:00 1007 29.74 836 24.69 2.6 36.6 67 -2.9 26.8
19:05 1007 29.74 836 24.69 2.5 36.5 68 -2.9 26.8
19:10 1007 29.74 836 24.69 2.4 36.3 68 -2.8 26.9
19:15 1007 29.74 836 24.69 2.3 36.2 69 -2.8 26.9
19:20 1007 29.74 836 24.69 2.2 35.9 69 -2.8 26.9
19:25 1007 29.74 836 24.69 2.2 35.9 70 -2.8 26.9
19:30 1007 29.74 836 24.69 2.1 35.8 70 -2.8 26.9
19:35 1007 29.74 836 24.69 2 35.7 70 -2.8 27
19:40 1007 29.74 836 24.69 2 35.6 70 -2.9 26.8
19:45 1007 29.74 836 24.69 2 35.5 70 -2.9 26.8
19:50 1007 29.74 836 24.69 1.9 35.4 71 -2.8 26.9
19:55 1007 29.74 836 24.69 1.8 35.3 70 -3 26.6
20:00 1007 29.74 836 24.69 1.8 35.2 69 -3.2 26.2
20:05 1007 29.74 836 24.69 1.8 35.2 68 -3.5 25.7
20:10 1007 29.74 836 24.69 1.7 35.1 66 -3.8 25.1
20:15 1007 29.74 836 24.69 1.6 35 66 -4 24.7
20:20 1007 29.74 836 24.69 1.5 34.8 65 -4.4 24.2
20:25 1007 29.74 836 24.69 1.4 34.5 64 -4.6 23.7
20:30 1007 29.74 836 24.69 1.3 34.3 63 -5.1 22.9
20:35 1007 29.74 836 24.69 1.2 34.1 62 -5.4 22.4
20:40 1007 29.74 836 24.69 1.1 33.9 62 -5.4 22.3
20:45 1007 29.74 836 24.69 1 33.7 61 -5.6 21.9
20:50 1007 29.74 836 24.69 0.9 33.6 62 -5.5 22.1
20:55 1007 29.74 836 24.69 0.8 33.4 63 -5.4 22.2
21:00 1007 29.74 836 24.69 0.7 33.3 65 -5 22.9
21:05 1007 29.74 836 24.69 0.6 33.1 68 -4.6 23.7
21:10 1007 29.74 836 24.69 0.5 32.9 71 -4.2 24.4
21:15 1007 29.74 836 24.69 0.4 32.8 73 -3.8 25.2
21:20 1007 29.74 837 24.72 0.4 32.6 75 -3.5 25.7
21:25 1007 29.74 837 24.72 0.3 32.5 76 -3.5 25.7
21:30 1007 29.74 837 24.72 -0.2 31.7 78 -3.5 25.7
21:35 1007 29.74 837 24.72 -0.6 31 80 -3.6 25.4
21:40 1008 29.77 837 24.72 -0.7 30.7 81 -3.6 25.5
21:45 1008 29.77 837 24.72 -0.9 30.3 83 -3.5 25.7
21:50 1008 29.77 837 24.72 -1.3 29.7 83 -3.8 25.2
21:55 1008 29.77 837 24.72 -1.1 29.9 81 -4 24.8
22:00 1008 29.77 837 24.72 -0.8 30.6 80 -3.8 25.2
22:05 1008 29.77 837 24.72 -0.7 30.7 79 -3.9 25
22:10 1008 29.77 837 24.72 -0.5 31.1 77 -4.1 24.7
22:15 1008 29.77 837 24.72 -0.7 30.7 79 -4 24.9
22:20 1008 29.77 837 24.72 -1.1 29.9 81 -4 24.8
22:25 1008 29.77 837 24.72 -1.3 29.6 82 -4 24.8
22:30 1008 29.77 837 24.72 -1.5 29.2 84 -3.9 24.9
22:35 1008 29.77 837 24.72 -1.6 29.2 85 -3.9 25.1
22:40 1008 29.77 837 24.72 -1.7 29 86 -3.8 25.2
22:45 1008 29.77 837 24.72 -1.8 28.8 86 -3.8 25.2
22:50 1008 29.77 837 24.72 -1.9 28.5 88 -3.7 25.4
22:55 1008 29.77 837 24.72 -2 28.4 89 -3.6 25.5
23:00 1008 29.77 837 24.72 -2.2 28 90 -3.7 25.4
23:05 1008 29.77 837 24.72 -2.3 27.9 91 -3.6 25.6
23:10 1008 29.77 838 24.75 -2.2 28.1 90 -3.5 25.6
23:15 1008 29.77 838 24.75 -2.3 27.9 91 -3.6 25.6
23:20 1008 29.77 838 24.75 -2.3 27.9 91 -3.5 25.7
23:25 1008 29.77 838 24.75 -2.1 28.2 91 -3.5 25.8
23:30 1008 29.77 838 24.75 -2.2 28 92 -3.4 25.9
23:35 1008 29.77 838 24.75 -2.2 28 92 -3.3 26
23:40 1008 29.77 837 24.72 -2.3 27.9 92 -3.4 25.9
23:45 1008 29.77 837 24.72 -2.6 27.4 93 -3.5 25.7
23:50 1008 29.77 838 24.75 -2.6 27.3 94 -3.4 25.8
23:55 1008 29.77 838 24.75 -2.7 27.1 95 -3.4 25.9
24:00 1008 29.77 838 24.75 -2.7 27.1 95 -3.4 26